Time;durP1;ratioP1;P1;durP2;ratioP2;P2;SDS_P1;SDS_P2;PMS_P1;PMS_P2;Temp;Humidity;BMP_temperature;BMP_pressure;BME280_temperature;BME280_humidity;BME280_pressure;Samples;Min_cycle;Max_cycle;Signal;HPM_P1;HPM_P2
2022/08/14 00:00:20;;;;;;;4.43;1.77;;;26.70;54.00;;;;;;4508638;31;20398;-66
2022/08/14 00:02:47;;;;;;;2.50;1.77;;;26.70;54.00;;;;;;4508585;31;20069;-66
2022/08/14 00:05:17;;;;;;;2.70;1.70;;;26.70;54.00;;;;;;4508589;31;20064;-66
2022/08/14 00:07:43;;;;;;;3.17;1.70;;;26.70;54.00;;;;;;4508405;31;20081;-66
2022/08/14 00:10:14;;;;;;;3.78;1.70;;;26.70;54.00;;;;;;4494561;31;20096;-66
2022/08/14 00:12:46;;;;;;;2.28;1.58;;;26.70;54.00;;;;;;4508448;31;20422;-66
2022/08/14 00:15:22;;;;;;;2.67;1.50;;;26.70;54.00;;;;;;4508775;31;20083;-66
2022/08/14 00:17:49;;;;;;;3.13;1.80;;;26.70;54.00;;;;;;4508635;31;20417;-66
2022/08/14 00:20:16;;;;;;;2.33;1.77;;;26.70;54.10;;;;;;4508064;31;20108;-66
2022/08/14 00:22:42;;;;;;;2.72;1.80;;;26.70;54.10;;;;;;4508354;31;20084;-67
2022/08/14 00:25:09;;;;;;;1.70;1.50;;;26.60;54.00;;;;;;4508288;31;20202;-66
2022/08/14 00:27:36;;;;;;;1.80;1.65;;;26.60;54.00;;;;;;4507916;31;20238;-66
2022/08/14 00:30:05;;;;;;;2.00;1.80;;;26.60;54.00;;;;;;4508152;31;20076;-66
2022/08/14 00:32:31;;;;;;;3.25;1.67;;;26.60;54.00;;;;;;4507937;31;20087;-66
2022/08/14 00:35:00;;;;;;;2.40;1.77;;;26.60;54.00;;;;;;4507879;31;20124;-66
2022/08/14 00:37:27;;;;;;;1.65;1.55;;;26.60;54.10;;;;;;4507878;31;20081;-66
2022/08/14 00:39:53;;;;;;;2.75;1.50;;;26.60;54.10;;;;;;4507814;31;20087;-66
2022/08/14 00:42:20;;;;;;;3.13;2.10;;;26.60;55.10;;;;;;4508086;31;20057;-66
2022/08/14 00:44:46;;;;;;;3.13;1.80;;;26.60;54.20;;;;;;4493607;31;20152;-67
2022/08/14 00:47:14;;;;;;;2.03;1.60;;;26.60;54.10;;;;;;4507939;31;20194;-66
2022/08/14 00:49:40;;;;;;;2.00;1.60;;;26.60;54.10;;;;;;4507977;31;20072;-66
2022/08/14 00:52:06;;;;;;;2.05;1.58;;;26.60;54.20;;;;;;4507706;31;20072;-67
2022/08/14 00:54:33;;;;;;;2.33;1.75;;;26.60;54.20;;;;;;4493704;31;20069;-66
2022/08/14 00:56:59;;;;;;;2.30;1.70;;;26.60;54.20;;;;;;4507831;31;20480;-66
2022/08/14 00:59:27;;;;;;;3.05;1.52;;;26.60;54.20;;;;;;4508145;31;20121;-66
2022/08/14 01:01:59;;;;;;;2.08;1.90;;;26.60;54.20;;;;;;4507819;31;20094;-67
2022/08/14 01:04:27;;;;;;;1.65;1.55;;;26.60;54.20;;;;;;4508141;31;20267;-66
2022/08/14 01:06:53;;;;;;;3.28;1.90;;;26.60;54.20;;;;;;4507514;31;20616;-66
2022/08/14 01:09:21;;;;;;;2.17;1.67;;;26.60;54.20;;;;;;4508021;31;20153;-67
2022/08/14 01:11:51;;;;;;;2.78;2.28;;;26.60;54.20;;;;;;4508005;31;20214;-66
2022/08/14 01:14:18;;;;;;;2.83;2.05;;;26.60;54.20;;;;;;4507752;31;20417;-67
2022/08/14 01:16:46;;;;;;;4.80;1.83;;;26.50;54.20;;;;;;4507834;31;20254;-66
2022/08/14 01:21:58;;;;;;;2.70;1.80;;;26.60;54.30;;;;;;4508078;31;20071;-66
2022/08/14 01:24:24;;;;;;;1.70;1.60;;;26.50;54.20;;;;;;4507691;31;20084;-67
2022/08/14 01:26:52;;;;;;;2.05;1.77;;;26.50;54.20;;;;;;4507468;31;20088;-66
2022/08/14 01:29:19;;;;;;;2.63;2.10;;;26.50;54.20;;;;;;4507400;31;20100;-67
2022/08/14 01:34:12;;;;;;;2.40;1.85;;;26.50;54.30;;;;;;4507573;31;20433;-66
2022/08/14 01:36:38;;;;;;;2.35;1.85;;;26.50;54.20;;;;;;4507465;31;20207;-67
2022/08/14 01:39:08;;;;;;;3.65;1.95;;;26.50;54.30;;;;;;4507712;31;20073;-66
2022/08/14 01:41:35;;;;;;;2.38;2.00;;;26.50;54.30;;;;;;4510996;31;20079;-66
2022/08/14 01:44:05;;;;;;;2.35;1.88;;;26.50;55.20;;;;;;4510824;31;20116;-66
2022/08/14 01:46:34;;;;;;;2.85;2.25;;;26.50;54.30;;;;;;4510714;31;20532;-66
2022/08/14 01:49:03;;;;;;;2.67;1.92;;;26.50;54.30;;;;;;4510345;31;20072;-66
2022/08/14 01:51:30;;;;;;;2.22;1.98;;;26.50;54.40;;;;;;4510847;31;20081;-66
2022/08/14 01:54:01;;;;;;;2.50;2.22;;;26.50;54.30;;;;;;4510513;31;20482;-68
2022/08/14 01:56:39;;;;;;;2.70;2.20;;;26.50;54.30;;;;;;4510539;31;20089;-66
2022/08/14 01:59:14;;;;;;;2.33;1.98;;;26.50;54.40;;;;;;4510479;31;20529;-66
2022/08/14 02:01:42;;;;;;;2.97;2.10;;;26.50;54.40;;;;;;4510108;31;20076;-66
2022/08/14 02:04:08;;;;;;;2.00;1.65;;;26.50;54.40;;;;;;4510427;31;20072;-66
2022/08/14 02:06:39;;;;;;;2.45;2.00;;;26.50;54.50;;;;;;4510060;31;20064;-66
2022/08/14 02:09:05;;;;;;;3.33;2.10;;;26.50;54.50;;;;;;4495990;31;20072;-66
2022/08/14 02:11:33;;;;;;;2.67;2.30;;;26.40;54.40;;;;;;4510548;31;20091;-66
2022/08/14 02:14:06;;;;;;;2.25;2.05;;;26.50;54.50;;;;;;4510305;31;20084;-67
2022/08/14 02:16:35;;;;;;;;;;;26.40;54.40;;;;;;4510854;31;20391;-66
2022/08/14 02:19:08;;;;;;;3.58;2.28;;;26.40;54.40;;;;;;4510066;31;20425;-66
2022/08/14 02:21:35;;;;;;;2.05;1.85;;;26.40;54.50;;;;;;4510238;31;20085;-66
2022/08/14 02:24:03;;;;;;;2.97;2.08;;;26.40;54.50;;;;;;4510068;31;20520;-66
2022/08/14 02:26:35;;;;;;;3.50;2.40;;;26.40;54.50;;;;;;4509789;31;20064;-66
2022/08/14 02:29:12;;;;;;;3.30;2.50;;;26.40;54.50;;;;;;4510389;31;20072;-66
2022/08/14 02:31:40;;;;;;;2.58;2.20;;;26.40;54.50;;;;;;4510331;31;20069;-66
2022/08/14 02:34:10;;;;;;;4.72;2.15;;;26.40;54.50;;;;;;4509837;31;20089;-66
2022/08/14 02:36:37;;;;;;;2.83;2.50;;;26.40;54.50;;;;;;4509876;31;20576;-66
2022/08/14 02:39:09;;;;;;;2.33;2.10;;;26.40;54.50;;;;;;4509585;31;20085;-66
2022/08/14 02:41:36;;;;;;;2.30;2.10;;;26.40;54.50;;;;;;4510121;31;20530;-66
2022/08/14 02:44:03;;;;;;;3.70;2.60;;;26.40;54.60;;;;;;4510035;31;20069;-66
2022/08/14 02:46:32;;;;;;;2.42;2.22;;;26.40;54.60;;;;;;4509475;31;20476;-66
2022/08/14 02:48:59;;;;;;;2.72;2.30;;;26.40;54.50;;;;;;4509245;31;20151;-66
2022/08/14 02:51:25;;;;;;;3.30;2.30;;;26.40;54.60;;;;;;4508622;31;20162;-66
2022/08/14 02:53:53;;;;;;;2.45;2.20;;;26.40;54.60;;;;;;4509891;31;20249;-66
2022/08/14 02:56:19;;;;;;;3.08;2.38;;;26.40;54.60;;;;;;4509821;31;20124;-66
2022/08/14 02:58:47;;;;;;;2.22;2.03;;;26.40;54.60;;;;;;4509384;31;20255;-66
2022/08/14 03:01:19;;;;;;;3.08;2.38;;;26.40;54.60;;;;;;4509569;31;20095;-66
2022/08/14 03:03:47;;;;;;;2.40;2.20;;;26.30;54.60;;;;;;4509611;31;20065;-68
2022/08/14 03:06:14;;;;;;;2.97;2.33;;;26.40;54.60;;;;;;4509654;31;20151;-66
2022/08/14 03:08:41;;;;;;;3.40;2.40;;;26.40;54.60;;;;;;4509412;31;20120;-66
2022/08/14 03:11:10;;;;;;;2.63;2.03;;;26.30;54.60;;;;;;4509311;31;20417;-66
2022/08/14 03:13:38;;;;;;;2.25;2.05;;;26.30;54.60;;;;;;4509339;31;20089;-66
2022/08/14 03:16:07;;;;;;;2.50;2.30;;;26.30;54.60;;;;;;4509189;31;20057;-66
2022/08/14 03:18:33;;;;;;;2.40;2.08;;;26.30;54.60;;;;;;4509180;31;20430;-66
2022/08/14 03:21:03;;;;;;;2.90;2.22;;;26.30;54.60;;;;;;4509194;31;20426;-66
2022/08/14 03:23:35;;;;;;;2.60;2.30;;;26.30;54.60;;;;;;4509189;31;20528;-66
2022/08/14 03:26:02;;;;;;;3.05;2.50;;;26.30;54.60;;;;;;4509539;31;20129;-67
2022/08/14 03:28:29;;;;;;;3.85;2.30;;;26.30;54.60;;;;;;4509112;31;20218;-66
2022/08/14 03:30:58;;;;;;;3.22;2.15;;;26.30;54.70;;;;;;4509151;31;20091;-67
2022/08/14 03:33:26;;;;;;;2.42;2.22;;;26.30;54.70;;;;;;4508797;31;20073;-65
2022/08/14 03:35:52;;;;;;;2.40;2.20;;;26.30;54.70;;;;;;4509130;31;20080;-67
2022/08/14 03:43:29;;;;;;;2.95;2.65;;;26.30;54.80;;;;;;4736105;26;20186;-69
2022/08/14 03:45:54;;;;;;;3.45;2.65;;;26.30;54.70;;;;;;4476576;31;20498;-64
2022/08/14 03:48:20;;;;;;;2.90;2.42;;;26.30;54.80;;;;;;4475583;31;20128;-68
2022/08/14 03:50:51;;;;;;;3.53;2.70;;;26.30;54.80;;;;;;4459843;32;20175;-65
2022/08/14 03:53:18;;;;;;;2.80;2.22;;;26.30;54.80;;;;;;4462650;32;20402;-67
2022/08/14 03:55:46;;;;;;;3.03;2.72;;;26.30;54.80;;;;;;4462803;32;20603;-66
2022/08/14 03:58:14;;;;;;;3.38;2.67;;;26.30;54.80;;;;;;4477107;32;20097;-66
2022/08/14 04:00:40;;;;;;;2.75;2.50;;;26.30;54.80;;;;;;4477009;32;20104;-66
2022/08/14 04:03:08;;;;;;;2.40;2.20;;;26.20;54.80;;;;;;4476825;32;20069;-67
2022/08/14 04:05:37;;;;;;;3.00;2.38;;;26.20;54.80;;;;;;4476975;32;20091;-66
2022/08/14 04:08:04;;;;;;;3.88;2.70;;;26.30;54.90;;;;;;4476970;32;20082;-66
2022/08/14 04:10:30;;;;;;;3.28;2.47;;;26.20;54.80;;;;;;4476751;32;20193;-66
2022/08/14 04:12:58;;;;;;;3.03;2.58;;;26.20;54.80;;;;;;4476860;32;20085;-66
2022/08/14 04:15:25;;;;;;;3.65;2.38;;;26.20;54.80;;;;;;4476466;32;20104;-66
2022/08/14 04:17:53;;;;;;;2.95;2.67;;;26.20;54.80;;;;;;4476793;32;20399;-66
2022/08/14 04:20:20;;;;;;;3.72;2.70;;;26.20;54.90;;;;;;4476771;32;20071;-68
2022/08/14 04:22:47;;;;;;;2.53;2.33;;;26.20;54.90;;;;;;4462714;32;20085;-66
2022/08/14 04:25:13;;;;;;;2.92;2.60;;;26.20;54.80;;;;;;4476701;32;20650;-66
2022/08/14 04:27:39;;;;;;;3.03;2.55;;;26.20;54.90;;;;;;4476709;32;20085;-67
2022/08/14 04:30:06;;;;;;;2.90;2.60;;;26.20;54.90;;;;;;4476656;32;20554;-66
2022/08/14 04:32:32;;;;;;;2.88;2.67;;;26.20;54.90;;;;;;4476631;32;20097;-66
2022/08/14 04:35:02;;;;;;;2.88;2.58;;;26.20;54.90;;;;;;4476315;32;20227;-66
2022/08/14 04:45:43;;;;;;;2.58;2.28;;;26.20;54.90;;;;;;4476555;32;20084;-66
2022/08/14 04:48:14;;;;;;;2.85;2.55;;;26.20;55.00;;;;;;4476694;32;20166;-66
2022/08/14 04:50:46;;;;;;;3.97;2.55;;;26.20;55.00;;;;;;4476742;32;20069;-66
2022/08/14 04:53:17;;;;;;;2.80;2.60;;;26.20;55.00;;;;;;4476547;32;20222;-67
2022/08/14 04:55:48;;;;;;;2.80;2.55;;;26.20;55.00;;;;;;4476587;32;20065;-65
2022/08/14 04:58:16;;;;;;;3.58;2.55;;;26.20;55.10;;;;;;4476683;32;20088;-66
2022/08/14 05:00:43;;;;;;;3.10;2.72;;;26.20;55.10;;;;;;4476642;32;20502;-66
2022/08/14 05:03:09;;;;;;;4.13;3.00;;;26.20;55.10;;;;;;4476470;32;20206;-66
2022/08/14 05:05:36;;;;;;;3.55;2.60;;;26.20;55.10;;;;;;4476055;32;20077;-66
2022/08/14 05:08:11;;;;;;;2.70;2.50;;;26.20;55.10;;;;;;4475908;32;20073;-66
2022/08/14 05:10:43;;;;;;;4.80;2.97;;;26.20;55.10;;;;;;4475995;32;20073;-67
2022/08/14 05:13:10;;;;;;;5.13;3.65;;;26.20;55.20;;;;;;4476199;32;20414;-66
2022/08/14 05:15:38;;;;;;;6.30;4.85;;;26.10;55.00;;;;;;4480848;32;20494;-66
2022/08/14 05:18:14;;;;;;;6.07;4.60;;;26.10;55.00;;;;;;4481045;32;20226;-66
2022/08/14 05:20:45;;;;;;;7.63;5.38;;;26.10;55.10;;;;;;4481396;32;20077;-67
2022/08/14 05:23:14;;;;;;;7.85;5.68;;;26.10;55.20;;;;;;4481384;32;20097;-66
2022/08/14 05:25:40;;;;;;;6.75;5.75;;;26.00;55.20;;;;;;4481378;32;20077;-67
2022/08/14 05:28:12;;;;;;;10.35;6.30;;;26.00;55.30;;;;;;4481222;32;20391;-70
2022/08/14 05:30:42;;;;;;;9.45;5.90;;;26.00;55.30;;;;;;4481067;32;20508;-67
2022/08/14 05:33:08;;;;;;;8.68;6.38;;;26.00;55.40;;;;;;4481307;32;20100;-67
2022/08/14 05:35:34;;;;;;;8.20;6.30;;;26.00;55.40;;;;;;4480950;32;20073;-66
2022/08/14 05:38:06;;;;;;;10.05;6.20;;;26.00;55.40;;;;;;4481228;32;20081;-66
2022/08/14 05:40:33;;;;;;;7.33;6.03;;;25.90;55.40;;;;;;4481534;32;20070;-66
2022/08/14 05:43:01;;;;;;;7.95;5.85;;;25.90;55.50;;;;;;4480979;32;20097;-66
2022/08/14 05:45:27;;;;;;;7.35;5.28;;;25.90;55.50;;;;;;4481160;32;20600;-66
2022/08/14 05:47:53;;;;;;;8.93;6.07;;;25.90;55.60;;;;;;4481398;32;20062;-66
2022/08/14 05:50:18;;;;;;;8.15;6.15;;;25.90;55.70;;;;;;4481210;32;20166;-66
2022/08/14 05:52:45;;;;;;;7.68;5.57;;;25.90;55.70;;;;;;4481106;32;20089;-66
2022/08/14 05:55:11;;;;;;;7.40;5.97;;;25.90;55.80;;;;;;4481005;32;20194;-66
2022/08/14 05:57:50;;;;;;;9.23;5.20;;;25.90;55.90;;;;;;4480803;32;20088;-66
2022/08/14 06:00:18;;;;;;;10.40;5.60;;;26.00;56.00;;;;;;4481391;32;20069;-66
2022/08/14 06:02:44;;;;;;;6.60;5.53;;;25.90;56.00;;;;;;4481024;32;20077;-66
2022/08/14 06:05:10;;;;;;;9.60;5.88;;;26.00;56.20;;;;;;4481316;32;20081;-66
2022/08/14 06:07:37;;;;;;;5.85;5.35;;;26.00;56.20;;;;;;4480751;32;20084;-66
2022/08/14 06:10:05;;;;;;;5.70;4.97;;;26.00;56.30;;;;;;4480638;32;20088;-66
2022/08/14 06:12:31;;;;;;;6.32;5.05;;;26.00;56.50;;;;;;4480710;32;20278;-66
2022/08/14 06:14:56;;;;;;;8.75;5.07;;;26.10;56.60;;;;;;4481210;32;20066;-66
2022/08/14 06:17:22;;;;;;;8.52;5.28;;;26.10;56.60;;;;;;4481079;32;20513;-66
2022/08/14 06:19:48;;;;;;;7.18;5.40;;;26.10;56.80;;;;;;4480690;32;20158;-66
2022/08/14 06:22:14;;;;;;;7.38;5.05;;;26.10;56.90;;;;;;4480886;32;20053;-66
2022/08/14 06:24:40;;;;;;;8.82;5.20;;;26.10;57.00;;;;;;4480886;32;20538;-67
2022/08/14 06:27:06;;;;;;;6.32;5.28;;;26.20;57.20;;;;;;4478548;32;20708;-66
2022/08/14 06:29:33;;;;;;;6.88;5.40;;;26.10;57.10;;;;;;4478389;32;20150;-66
2022/08/14 06:31:59;;;;;;;7.40;5.72;;;26.10;57.20;;;;;;4478341;32;20074;-66
2022/08/14 06:34:24;;;;;;;5.82;5.13;;;26.10;57.20;;;;;;4478321;32;20151;-66
2022/08/14 06:36:50;;;;;;;6.55;5.00;;;26.10;57.30;;;;;;4478201;32;20154;-66
2022/08/14 06:39:16;;;;;;;5.97;5.43;;;26.20;57.50;;;;;;4478163;32;20176;-66
2022/08/14 06:41:42;;;;;;;6.13;5.40;;;26.20;57.50;;;;;;4478216;32;20058;-67
2022/08/14 06:44:08;;;;;;;7.20;5.43;;;26.20;57.50;;;;;;4478103;32;20069;-69
2022/08/14 06:46:34;;;;;;;5.68;4.82;;;26.20;57.50;;;;;;4477871;32;20087;-67
2022/08/14 06:49:00;;;;;;;7.28;4.97;;;26.20;57.40;;;;;;4478374;32;20077;-66
2022/08/14 06:51:26;;;;;;;5.80;4.75;;;26.20;57.40;;;;;;4463970;32;20410;-66
2022/08/14 06:53:51;;;;;;;8.55;5.10;;;26.20;57.20;;;;;;4477647;32;20083;-68
2022/08/14 06:56:17;;;;;;;6.57;4.97;;;26.20;57.20;;;;;;4478409;32;20074;-68
2022/08/14 06:58:43;;;;;;;5.45;4.55;;;26.20;57.10;;;;;;4478202;32;20065;-68
2022/08/14 07:06:38;;;;;;;5.65;4.93;;;26.30;57.00;;;;;;4477955;32;20191;-69
2022/08/14 07:09:04;;;;;;;8.73;4.65;;;26.30;57.00;;;;;;4477662;32;20445;-68
2022/08/14 07:11:30;;;;;;;8.38;4.28;;;26.30;56.90;;;;;;4477428;32;20211;-67
2022/08/14 07:13:56;;;;;;;4.95;4.28;;;26.30;56.80;;;;;;4477927;32;20065;-68
2022/08/14 07:16:22;;;;;;;13.10;4.55;;;26.30;56.70;;;;;;4477879;32;20132;-68
2022/08/14 07:18:48;;;;;;;6.00;5.03;;;26.40;56.80;;;;;;4477653;32;20062;-68
2022/08/14 07:21:14;;;;;;;6.05;4.72;;;26.40;56.80;;;;;;4477870;32;20057;-68
2022/08/14 07:23:40;;;;;;;8.68;4.55;;;26.40;56.70;;;;;;4463463;32;20069;-68
2022/08/14 07:26:07;;;;;;;7.82;4.80;;;26.40;56.60;;;;;;4477544;32;20081;-68
2022/08/14 07:28:35;;;;;;;5.82;4.45;;;26.40;56.50;;;;;;4477537;32;20070;-68
2022/08/14 07:31:03;;;;;;;5.30;4.82;;;26.40;56.50;;;;;;4477457;32;20109;-68
2022/08/14 07:33:50;;;;;;;5.78;4.70;;;26.40;56.40;;;;;;4477649;32;20080;-68
2022/08/14 07:36:18;;;;;;;5.93;4.88;;;26.40;56.40;;;;;;4477081;32;20092;-68
2022/08/14 07:38:44;;;;;;;5.32;4.78;;;26.40;56.30;;;;;;4476934;32;20203;-68
2022/08/14 07:41:11;;;;;;;7.97;4.95;;;26.40;56.40;;;;;;4477368;32;20389;-68
2022/08/14 07:43:38;;;;;;;5.18;4.68;;;26.40;56.30;;;;;;4476881;32;20187;-68
2022/08/14 07:46:05;;;;;;;5.70;5.00;;;26.40;56.10;;;;;;4476957;32;20167;-68
2022/08/14 07:48:31;;;;;;;8.85;4.85;;;26.40;56.10;;;;;;4477252;32;20093;-68
2022/08/14 07:50:57;;;;;;;5.65;4.25;;;26.40;56.10;;;;;;4477192;32;20407;-68
2022/08/14 07:53:23;;;;;;;6.45;4.93;;;26.40;56.10;;;;;;4477136;32;20599;-68
2022/08/14 07:55:49;;;;;;;7.50;5.20;;;26.40;56.00;;;;;;4476794;32;20093;-68
2022/08/14 07:58:16;;;;;;;6.10;4.65;;;26.50;56.10;;;;;;4477055;32;20127;-68
2022/08/14 08:00:43;;;;;;;5.25;4.68;;;26.50;56.00;;;;;;4477009;32;20127;-68
2022/08/14 08:03:09;;;;;;;4.80;4.30;;;26.50;56.00;;;;;;4477003;32;20481;-68
2022/08/14 08:05:37;;;;;;;6.05;4.47;;;26.50;56.00;;;;;;4477190;32;20200;-68
2022/08/14 08:08:05;;;;;;;5.53;4.68;;;26.50;56.00;;;;;;4477149;32;20083;-68
2022/08/14 08:10:31;;;;;;;4.72;4.25;;;26.50;56.00;;;;;;4476566;32;20135;-68
2022/08/14 08:13:09;;;;;;;6.68;4.70;;;26.50;56.00;;;;;;4476853;32;20088;-68
2022/08/14 08:15:44;;;;;;;4.82;4.35;;;26.50;55.90;;;;;;4476867;32;20069;-68
2022/08/14 08:18:12;;;;;;;4.90;4.40;;;26.50;56.90;;;;;;4477071;32;20199;-69
2022/08/14 08:20:45;;;;;;;4.78;4.38;;;26.60;56.00;;;;;;4476965;32;20073;-68
2022/08/14 08:23:12;;;;;;;4.82;4.43;;;26.60;56.00;;;;;;4476831;32;20106;-68
2022/08/14 08:25:42;;;;;;;4.57;4.10;;;26.60;56.00;;;;;;4476390;32;20073;-68
2022/08/14 08:28:09;;;;;;;5.60;4.40;;;26.60;55.90;;;;;;4476896;32;20085;-68
2022/08/14 08:30:38;;;;;;;4.45;4.05;;;26.60;55.90;;;;;;4462530;32;20087;-68
2022/08/14 08:33:05;;;;;;;6.13;4.78;;;26.60;55.90;;;;;;4476551;32;20521;-68
2022/08/14 08:35:34;;;;;;;6.18;4.40;;;26.60;56.00;;;;;;4476678;32;20583;-68
2022/08/14 08:38:06;;;;;;;6.55;4.05;;;26.60;56.00;;;;;;4476213;32;20507;-68
2022/08/14 08:40:40;;;;;;;5.32;4.50;;;26.70;56.10;;;;;;4476464;32;20208;-68
2022/08/14 08:43:15;;;;;;;7.60;4.53;;;26.70;56.10;;;;;;4476534;32;20633;-68
2022/08/14 08:45:41;;;;;;;4.70;4.30;;;26.70;56.10;;;;;;4476691;32;20129;-68
2022/08/14 08:48:07;;;;;;;7.32;4.68;;;26.70;56.10;;;;;;4476277;32;20498;-68
2022/08/14 08:50:36;;;;;;;7.60;4.78;;;26.70;56.00;;;;;;4476157;32;20128;-67
2022/08/14 08:53:05;;;;;;;6.97;4.10;;;26.70;56.00;;;;;;4476254;32;20169;-68
2022/08/14 08:55:49;;;;;;;6.43;4.63;;;26.70;56.00;;;;;;4476238;32;20258;-68
2022/08/14 08:58:17;;;;;;;4.88;4.22;;;26.70;56.00;;;;;;4476664;32;20065;-68
2022/08/14 09:00:47;;;;;;;8.25;4.63;;;26.70;56.00;;;;;;4476236;32;20089;-68
2022/08/14 09:03:16;;;;;;;5.13;4.40;;;26.70;56.00;;;;;;4476512;32;20104;-68
2022/08/14 09:06:00;;;;;;;5.57;5.03;;;26.70;55.90;;;;;;4476206;32;20597;-67
2022/08/14 09:08:28;;;;;;;5.45;4.95;;;26.70;55.90;;;;;;4476231;32;20162;-67
2022/08/14 09:10:55;;;;;;;8.35;5.72;;;26.70;55.90;;;;;;4476138;32;20126;-67
2022/08/14 09:13:25;;;;;;;8.07;5.88;;;26.80;56.00;;;;;;4476222;32;20120;-67
2022/08/14 09:15:53;;;;;;;5.78;5.28;;;26.80;55.90;;;;;;4476081;32;20129;-68
2022/08/14 09:18:21;;;;;;;7.00;5.60;;;26.80;56.00;;;;;;4476152;32;20084;-68
2022/08/14 09:20:50;;;;;;;6.00;5.50;;;26.80;55.90;;;;;;4475870;32;20092;-68
2022/08/14 09:23:16;;;;;;;7.80;6.13;;;26.80;55.90;;;;;;4475827;32;20480;-68
2022/08/14 09:25:44;;;;;;;11.23;5.88;;;26.80;55.90;;;;;;4476115;32;20097;-68
2022/08/14 09:28:12;;;;;;;6.00;5.40;;;26.80;55.80;;;;;;4476341;32;20129;-68
2022/08/14 09:30:42;;;;;;;7.70;5.55;;;26.80;55.80;;;;;;4476037;32;20074;-68
2022/08/14 09:33:20;;;;;;;6.50;5.53;;;26.80;55.70;;;;;;4476020;32;20093;-68
2022/08/14 09:35:49;;;;;;;6.93;5.45;;;26.80;55.60;;;;;;4476022;32;20078;-67
2022/08/14 09:38:33;;;;;;;8.40;6.20;;;26.80;55.60;;;;;;4475942;32;20121;-71
2022/08/14 09:41:12;;;;;;;5.55;5.05;;;26.80;55.50;;;;;;4476071;32;20088;-68
2022/08/14 09:43:53;;;;;;;5.82;5.30;;;26.80;55.50;;;;;;4475572;32;20070;-68
2022/08/14 09:46:20;;;;;;;6.47;5.45;;;26.80;55.50;;;;;;4476313;32;20671;-68
2022/08/14 09:48:57;;;;;;;4.90;4.50;;;26.80;55.40;;;;;;4476059;32;20387;-68
2022/08/14 09:51:24;;;;;;;5.50;5.00;;;26.80;55.40;;;;;;4476131;32;20084;-68
2022/08/14 09:54:10;;;;;;;5.85;5.25;;;26.80;55.40;;;;;;4475939;32;20214;-68
2022/08/14 09:56:44;;;;;;;5.50;5.00;;;26.80;55.40;;;;;;4476135;32;20061;-68
2022/08/14 09:59:13;;;;;;;5.32;4.82;;;26.80;55.30;;;;;;4476096;32;20108;-68
2022/08/14 10:01:40;;;;;;;5.35;4.72;;;26.80;55.20;;;;;;4477993;32;20091;-68
2022/08/14 10:04:23;;;;;;;5.68;5.18;;;26.80;56.10;;;;;;4478520;32;20065;-68
2022/08/14 10:06:50;;;;;;;5.15;4.65;;;26.90;55.10;;;;;;4478909;32;20621;-68
2022/08/14 10:09:17;;;;;;;9.40;5.10;;;26.90;55.20;;;;;;4478609;32;20074;-68
2022/08/14 10:11:54;;;;;;;4.88;4.47;;;26.90;55.20;;;;;;4478607;32;20107;-70
2022/08/14 10:14:26;;;;;;;5.30;4.80;;;26.80;55.10;;;;;;4478712;32;20216;-68
2022/08/14 10:16:54;;;;;;;6.70;4.68;;;26.80;55.10;;;;;;4478881;32;20093;-67
2022/08/14 10:19:26;;;;;;;6.00;5.40;;;26.80;55.10;;;;;;4478662;32;20077;-68
2022/08/14 10:22:11;;;;;;;5.90;5.25;;;26.90;55.10;;;;;;4479017;32;20085;-67
2022/08/14 10:24:39;;;;;;;5.03;4.63;;;26.90;54.90;;;;;;4464618;32;20143;-68
2022/08/14 10:27:17;;;;;;;5.45;4.93;;;26.90;55.00;;;;;;4478722;32;20234;-65
2022/08/14 10:29:52;;;;;;;6.55;5.43;;;26.90;54.80;;;;;;4478044;32;20077;-66
2022/08/14 10:32:18;;;;;;;5.68;4.82;;;26.90;54.90;;;;;;4478695;32;20085;-66
2022/08/14 10:34:45;;;;;;;10.50;4.97;;;26.90;55.00;;;;;;4478326;32;20135;-66
2022/08/14 10:37:13;;;;;;;4.72;4.28;;;26.90;55.10;;;;;;4478240;32;20502;-69
2022/08/14 10:39:40;;;;;;;5.63;5.03;;;26.90;55.10;;;;;;4478453;32;20670;-66
2022/08/14 10:42:12;;;;;;;5.93;4.28;;;26.90;55.20;;;;;;4478189;32;20074;-66
2022/08/14 10:44:44;;;;;;;4.85;4.35;;;26.90;55.30;;;;;;4477651;32;20073;-66
2022/08/14 10:47:11;;;;;;;4.90;4.50;;;26.90;55.30;;;;;;4478436;32;20203;-65
2022/08/14 10:49:48;;;;;;;5.22;4.80;;;26.90;55.30;;;;;;4478106;32;20158;-66
2022/08/14 10:52:21;;;;;;;5.63;5.13;;;26.90;55.40;;;;;;4464839;32;20074;-66
2022/08/14 10:54:47;;;;;;;5.10;4.60;;;27.00;55.60;;;;;;4478116;32;20085;-66
2022/08/14 10:57:14;;;;;;;5.22;4.72;;;26.90;55.40;;;;;;4478185;32;20080;-66
2022/08/14 10:59:50;;;;;;;4.95;4.55;;;26.90;55.40;;;;;;4477935;32;20105;-67
2022/08/14 11:02:30;;;;;;;5.07;4.60;;;26.90;55.40;;;;;;4478210;32;20077;-64
2022/08/14 11:05:00;;;;;;;8.52;4.45;;;26.90;55.40;;;;;;4477946;32;20516;-64
2022/08/14 11:07:27;;;;;;;8.55;4.85;;;27.00;55.50;;;;;;4463917;32;20162;-66
2022/08/14 11:10:07;;;;;;;9.98;5.97;;;26.90;55.40;;;;;;4477720;32;20091;-65
2022/08/14 11:12:59;;;;;;;7.18;4.22;;;26.90;55.60;;;;;;4477388;32;20407;-65
2022/08/14 11:15:27;;;;;;;5.70;4.20;;;27.00;55.60;;;;;;4474328;32;20129;-65
2022/08/14 11:17:53;;;;;;;5.13;4.63;;;27.00;55.60;;;;;;4477616;32;20124;-66
2022/08/14 11:20:23;;;;;;;5.07;4.25;;;27.00;55.70;;;;;;4477925;32;20069;-66
2022/08/14 11:22:53;;;;;;;6.65;4.68;;;27.00;55.80;;;;;;4477591;32;20082;-66
2022/08/14 11:25:22;;;;;;;5.03;4.45;;;27.00;55.80;;;;;;4477288;32;20092;-66
2022/08/14 11:27:50;;;;;;;5.13;4.43;;;27.00;55.90;;;;;;4477311;32;20073;-65
2022/08/14 11:30:23;;;;;;;6.68;4.30;;;27.00;55.90;;;;;;4477289;32;20230;-66
2022/08/14 11:32:50;;;;;;;4.97;4.55;;;27.00;55.90;;;;;;4477313;32;20100;-66
2022/08/14 11:35:20;;;;;;;5.35;4.35;;;27.00;55.90;;;;;;4477718;32;20092;-66
2022/08/14 11:38:01;;;;;;;5.10;4.55;;;27.00;55.90;;;;;;4477706;32;20513;-66
2022/08/14 11:40:30;;;;;;;4.95;4.18;;;27.00;55.90;;;;;;4477105;32;20228;-65
2022/08/14 11:42:56;;;;;;;4.85;4.40;;;27.00;55.90;;;;;;4477162;32;20638;-66
2022/08/14 11:45:32;;;;;;;8.45;4.55;;;27.00;55.90;;;;;;4477637;32;20124;-65
2022/08/14 11:47:58;;;;;;;6.00;4.40;;;27.00;55.90;;;;;;4477311;32;20402;-65
2022/08/14 11:50:29;;;;;;;4.82;4.32;;;27.00;56.00;;;;;;4477166;32;20494;-66
2022/08/14 11:52:56;;;;;;;4.93;4.47;;;27.00;55.90;;;;;;4477431;32;20215;-66
2022/08/14 11:55:25;;;;;;;4.80;4.43;;;27.00;56.90;;;;;;4477208;32;20140;-66
2022/08/14 11:58:04;;;;;;;5.20;4.70;;;27.00;55.90;;;;;;4476836;32;20092;-66
2022/08/14 12:00:30;;;;;;;4.22;3.83;;;27.00;55.90;;;;;;4477336;32;20490;-66
2022/08/14 12:02:58;;;;;;;5.70;4.70;;;27.00;55.90;;;;;;4477288;32;20210;-66
2022/08/14 12:05:38;;;;;;;5.57;3.90;;;27.00;55.90;;;;;;4477212;32;20104;-65
2022/08/14 12:08:08;;;;;;;4.72;4.22;;;27.00;55.90;;;;;;4477030;32;20494;-66
2022/08/14 12:10:37;;;;;;;4.53;4.20;;;27.10;56.00;;;;;;4476840;32;20096;-66
2022/08/14 12:13:18;;;;;;;7.13;4.05;;;27.10;56.00;;;;;;4476850;32;20105;-66
2022/08/14 12:15:47;;;;;;;4.35;3.95;;;27.10;56.00;;;;;;4477094;32;20151;-66
2022/08/14 12:18:14;;;;;;;5.90;4.20;;;27.10;56.00;;;;;;4476787;32;20148;-66
2022/08/14 12:20:45;;;;;;;4.82;4.10;;;27.10;56.00;;;;;;4476946;32;20394;-66
2022/08/14 12:23:23;;;;;;;4.55;4.15;;;27.10;56.00;;;;;;4476748;32;20081;-66
2022/08/14 12:25:49;;;;;;;4.47;3.83;;;27.10;55.90;;;;;;4476723;32;20081;-65
2022/08/14 12:28:15;;;;;;;3.90;3.60;;;27.10;55.90;;;;;;4462640;32;20537;-66
2022/08/14 12:30:44;;;;;;;4.35;3.65;;;27.10;55.90;;;;;;4476377;32;20109;-67
2022/08/14 12:33:28;;;;;;;4.13;3.83;;;27.10;55.90;;;;;;4462895;32;20395;-66
2022/08/14 12:35:59;;;;;;;4.78;3.70;;;27.20;56.00;;;;;;4476600;32;20091;-65
2022/08/14 12:38:35;;;;;;;4.20;3.80;;;27.10;55.90;;;;;;4476757;32;20083;-66
2022/08/14 12:41:02;;;;;;;4.43;4.03;;;27.10;55.90;;;;;;4476356;32;20085;-66
2022/08/14 12:43:28;;;;;;;3.92;3.63;;;27.20;55.90;;;;;;4476086;32;20235;-66
2022/08/14 12:45:54;;;;;;;5.07;4.03;;;27.20;55.90;;;;;;4476447;32;20069;-66
2022/08/14 12:48:22;;;;;;;4.00;3.67;;;27.20;56.80;;;;;;4476436;32;20077;-65
2022/08/14 12:50:50;;;;;;;5.35;3.80;;;27.20;55.90;;;;;;4476106;32;20089;-66
2022/08/14 12:53:18;;;;;;;4.40;3.97;;;27.20;55.80;;;;;;4476137;32;20236;-66
2022/08/14 12:55:45;;;;;;;4.40;4.00;;;27.20;55.80;;;;;;4476213;32;20199;-72
2022/08/14 12:58:11;;;;;;;4.60;3.83;;;27.20;55.80;;;;;;4476293;32;20561;-65
2022/08/14 13:00:46;;;;;;;4.90;3.95;;;27.20;55.80;;;;;;4476007;32;20088;-66
2022/08/14 13:03:23;;;;;;;3.90;3.60;;;27.20;55.80;;;;;;4476138;32;20113;-67
2022/08/14 13:05:49;;;;;;;4.15;3.80;;;27.20;55.80;;;;;;4476372;32;20091;-66
2022/08/14 13:08:16;;;;;;;4.32;3.92;;;27.20;55.70;;;;;;4476487;32;20139;-66
2022/08/14 13:10:43;;;;;;;4.80;4.28;;;27.30;55.80;;;;;;4462382;32;20091;-65
2022/08/14 13:13:09;;;;;;;4.68;4.15;;;27.30;55.80;;;;;;4462159;32;20579;-66
2022/08/14 13:15:37;;;;;;;4.32;3.53;;;27.30;55.80;;;;;;4476087;32;20494;-66
2022/08/14 13:18:03;;;;;;;4.65;4.20;;;27.30;55.70;;;;;;4476147;32;20566;-66
2022/08/14 13:20:30;;;;;;;4.38;3.97;;;27.30;55.70;;;;;;4476548;32;20474;-65